createdAt,value
2019-06-26T00:02:22.815Z,9.05
2019-06-26T00:04:52.071Z,8.00
2019-06-26T00:07:21.199Z,8.38
2019-06-26T00:09:50.095Z,8.93
2019-06-26T00:12:19.555Z,8.80
2019-06-26T00:14:48.487Z,8.70
2019-06-26T00:17:17.407Z,8.63
2019-06-26T00:19:46.427Z,8.48
2019-06-26T00:22:15.811Z,8.90
2019-06-26T00:24:44.658Z,9.28
2019-06-26T00:27:13.474Z,9.28
2019-06-26T00:29:42.435Z,7.72
2019-06-26T00:32:11.338Z,8.53
2019-06-26T00:34:40.272Z,8.58
2019-06-26T00:37:09.222Z,8.25
2019-06-26T00:39:38.235Z,9.30
2019-06-26T00:42:07.209Z,8.68
2019-06-26T00:44:36.318Z,8.30
2019-06-26T00:47:05.420Z,8.38
2019-06-26T00:49:34.490Z,8.33
2019-06-26T00:52:03.542Z,7.33
2019-06-26T00:54:32.848Z,6.70
2019-06-26T00:57:01.922Z,6.90
2019-06-26T00:59:30.839Z,7.78
2019-06-26T01:01:59.738Z,7.25
2019-06-26T01:04:32.486Z,7.65
2019-06-26T01:07:01.389Z,8.25
2019-06-26T01:09:30.574Z,7.30
2019-06-26T01:11:59.507Z,7.40
2019-06-26T01:14:28.432Z,7.72
2019-06-26T01:16:57.391Z,8.08
2019-06-26T01:19:27.077Z,7.72
2019-06-26T01:21:56.008Z,8.28
2019-06-26T01:24:24.990Z,8.48
2019-06-26T01:26:53.983Z,8.10
2019-06-26T01:29:23.147Z,8.30
2019-06-26T01:31:52.292Z,8.08
2019-06-26T01:34:21.131Z,7.28
2019-06-26T01:36:50.076Z,8.23
2019-06-26T01:39:19.132Z,8.30
2019-06-26T01:41:48.118Z,9.05
2019-06-26T01:44:17.071Z,9.68
2019-06-26T01:46:45.974Z,9.65
2019-06-26T01:49:14.907Z,9.35
2019-06-26T01:51:43.805Z,9.45
2019-06-26T01:54:12.740Z,10.05
2019-06-26T01:56:41.711Z,10.68
2019-06-26T01:59:10.670Z,11.50
2019-06-26T02:01:39.520Z,11.95
2019-06-26T02:04:08.470Z,11.90
2019-06-26T02:06:37.771Z,13.65
2019-06-26T02:09:07.088Z,12.90
2019-06-26T02:11:35.889Z,12.45
2019-06-26T02:14:05.242Z,11.25
2019-06-26T02:16:34.336Z,12.07
2019-06-26T02:19:04.757Z,11.40
2019-06-26T02:21:33.698Z,12.10
2019-06-26T02:24:02.585Z,11.78
2019-06-26T02:26:31.506Z,12.10
2019-06-26T02:29:00.859Z,11.95
2019-06-26T02:31:29.767Z,12.33
2019-06-26T02:33:58.606Z,12.47
2019-06-26T02:36:27.560Z,12.05
2019-06-26T02:38:56.429Z,12.80
2019-06-26T02:41:25.539Z,12.85
2019-06-26T02:43:54.454Z,10.90
2019-06-26T02:46:23.468Z,11.10
2019-06-26T02:48:52.515Z,10.82
2019-06-26T02:51:21.506Z,11.53
2019-06-26T02:53:50.435Z,10.93
2019-06-26T02:56:19.478Z,12.03
2019-06-26T02:58:48.384Z,10.68
2019-06-26T03:01:17.327Z,11.30
2019-06-26T03:03:46.312Z,12.15
2019-06-26T03:06:15.179Z,12.13
2019-06-26T03:08:44.255Z,12.55
2019-06-26T03:11:13.123Z,12.80
2019-06-26T03:13:41.995Z,12.88
2019-06-26T03:16:11.041Z,18.30
2019-06-26T03:18:39.882Z,16.30
2019-06-26T03:21:08.920Z,24.37
2019-06-26T03:23:37.811Z,17.90
2019-06-26T03:26:06.694Z,17.50
2019-06-26T03:28:35.686Z,18.57
2019-06-26T03:31:04.814Z,14.63
2019-06-26T03:33:33.701Z,14.83
2019-06-26T03:36:02.648Z,13.25
2019-06-26T03:38:31.503Z,13.18
2019-06-26T03:41:00.550Z,13.93
2019-06-26T03:43:29.377Z,14.03
2019-06-26T03:45:58.393Z,14.80
2019-06-26T03:48:27.703Z,16.62
2019-06-26T03:50:56.622Z,16.90
2019-06-26T03:53:25.444Z,16.57
2019-06-26T03:55:54.398Z,17.23
2019-06-26T03:58:23.261Z,17.15
2019-06-26T04:00:52.061Z,17.92
2019-06-26T04:03:21.010Z,18.50
2019-06-26T04:05:49.996Z,19.07
2019-06-26T04:08:19.179Z,17.87
2019-06-26T04:10:48.163Z,17.07
2019-06-26T04:13:17.122Z,18.60
2019-06-26T04:15:46.140Z,18.87
2019-06-26T04:18:15.041Z,36.85
2019-06-26T04:20:43.989Z,31.40
2019-06-26T04:23:13.010Z,42.35
2019-06-26T04:25:42.266Z,40.55
2019-06-26T04:28:11.101Z,51.33
2019-06-26T04:30:40.034Z,27.52
2019-06-26T04:33:09.084Z,21.90
2019-06-26T04:35:37.976Z,25.32
2019-06-26T04:38:06.901Z,30.15
2019-06-26T04:40:35.843Z,33.00
2019-06-26T04:43:05.188Z,30.12
2019-06-26T04:45:34.114Z,32.85
2019-06-26T04:48:06.908Z,32.80
2019-06-26T04:50:33.958Z,31.70
2019-06-26T04:53:02.855Z,32.63
2019-06-26T04:55:31.665Z,32.90
2019-06-26T04:58:00.645Z,33.92
2019-06-26T05:00:29.618Z,31.95
2019-06-26T05:02:58.623Z,32.55
2019-06-26T05:05:39.082Z,35.05
2019-06-26T05:07:58.529Z,33.33
2019-06-26T05:10:27.406Z,32.17
2019-06-26T05:12:56.681Z,33.02
2019-06-26T05:15:25.646Z,32.95
2019-06-26T05:17:54.534Z,33.28
2019-06-26T05:20:23.685Z,37.28
2019-06-26T05:22:52.575Z,38.78
2019-06-26T05:25:21.877Z,34.20
2019-06-26T05:27:50.823Z,33.80
2019-06-26T05:30:21.321Z,31.73
2019-06-26T05:32:50.387Z,30.62
2019-06-26T05:35:19.500Z,32.30
2019-06-26T05:37:48.531Z,28.95
2019-06-26T05:40:17.809Z,29.27
2019-06-26T05:42:46.826Z,28.25
2019-06-26T05:45:16.055Z,27.22
2019-06-26T05:47:45.156Z,27.75
2019-06-26T05:50:14.780Z,25.48
2019-06-26T05:52:43.701Z,27.35
2019-06-26T05:55:13.352Z,27.90
2019-06-26T05:57:42.418Z,24.57
2019-06-26T06:00:12.237Z,26.68
2019-06-26T06:02:41.061Z,24.90
2019-06-26T06:05:10.585Z,26.10
2019-06-26T06:07:39.512Z,27.07
2019-06-26T06:10:09.317Z,25.77
2019-06-26T06:12:38.250Z,23.80
2019-06-26T06:15:07.962Z,24.35
2019-06-26T06:17:36.884Z,23.85
2019-06-26T06:20:06.657Z,23.50
2019-06-26T06:22:35.639Z,23.05
2019-06-26T06:25:05.558Z,24.87
2019-06-26T06:27:34.516Z,23.15
2019-06-26T06:30:03.871Z,25.20
2019-06-26T06:32:32.850Z,24.85
2019-06-26T06:35:01.734Z,24.20
2019-06-26T06:37:30.736Z,22.30
2019-06-26T06:39:59.589Z,23.38
2019-06-26T06:42:28.452Z,22.93
2019-06-26T06:44:57.371Z,22.52
2019-06-26T06:47:26.362Z,22.60
2019-06-26T06:49:55.243Z,23.92
2019-06-26T06:52:24.141Z,21.52
2019-06-26T06:54:53.510Z,19.62
2019-06-26T06:57:22.509Z,18.92
2019-06-26T06:59:51.393Z,18.92
2019-06-26T07:02:20.469Z,23.10
2019-06-26T07:04:49.405Z,20.75
2019-06-26T07:07:18.270Z,19.98
2019-06-26T07:09:47.466Z,21.65
2019-06-26T07:12:16.417Z,18.90
2019-06-26T07:14:45.389Z,17.95
2019-06-26T07:17:20.571Z,19.55
2019-06-26T07:19:45.150Z,19.30
2019-06-26T07:22:14.215Z,19.67
2019-06-26T07:24:43.096Z,17.52
2019-06-26T07:27:12.325Z,19.40
2019-06-26T07:29:41.402Z,15.20
2019-06-26T07:32:10.428Z,16.75
2019-06-26T07:34:39.382Z,14.95
2019-06-26T07:37:08.433Z,15.88
2019-06-26T07:39:37.292Z,15.88
2019-06-26T07:42:06.641Z,17.15
2019-06-26T07:44:35.581Z,16.45
2019-06-26T07:47:12.757Z,15.50
2019-06-26T07:49:35.380Z,17.42
2019-06-26T07:52:04.361Z,17.15
2019-06-26T07:54:33.547Z,14.30
2019-06-26T07:57:02.595Z,15.88
2019-06-26T07:59:32.118Z,16.25
2019-06-26T08:02:00.966Z,16.42
2019-06-26T08:04:29.849Z,16.45
2019-06-26T08:06:59.095Z,14.73
2019-06-26T08:09:47.374Z,15.30
2019-06-26T08:12:16.328Z,14.60
2019-06-26T08:14:45.217Z,14.73
2019-06-26T08:17:14.185Z,13.72
2019-06-26T08:19:43.042Z,12.95
2019-06-26T08:22:11.950Z,11.28
2019-06-26T08:24:40.885Z,11.10
2019-06-26T08:27:12.838Z,11.55
2019-06-26T08:29:40.525Z,11.20
2019-06-26T08:32:09.438Z,10.60
2019-06-26T08:34:38.277Z,14.18
2019-06-26T08:37:07.160Z,11.90
2019-06-26T08:39:36.100Z,12.63
2019-06-26T08:42:05.049Z,10.35
2019-06-26T08:44:34.019Z,10.53
2019-06-26T08:47:02.913Z,12.43
2019-06-26T08:49:32.187Z,11.80
2019-06-26T08:52:01.266Z,12.47
2019-06-26T08:54:30.113Z,13.62
2019-06-26T08:56:58.984Z,11.57
2019-06-26T08:59:28.012Z,11.08
2019-06-26T09:01:57.015Z,12.05
2019-06-26T09:04:25.865Z,10.32
2019-06-26T09:06:54.793Z,10.85
2019-06-26T09:09:23.734Z,10.55
2019-06-26T09:11:52.676Z,9.73
2019-06-26T09:14:21.582Z,10.10
2019-06-26T09:16:50.526Z,10.53
2019-06-26T09:19:19.469Z,9.78
2019-06-26T09:21:48.567Z,9.70
2019-06-26T09:24:17.564Z,9.98
2019-06-26T09:26:46.609Z,10.82
2019-06-26T09:29:15.753Z,9.40
2019-06-26T09:31:44.597Z,9.05
2019-06-26T09:34:13.537Z,11.88
2019-06-26T09:36:42.461Z,11.05
2019-06-26T09:39:11.411Z,8.80
2019-06-26T09:41:40.406Z,10.55
2019-06-26T09:44:09.451Z,10.28
2019-06-26T09:46:38.387Z,9.75
2019-06-26T09:49:07.221Z,10.80
2019-06-26T09:51:36.284Z,10.08
2019-06-26T09:54:05.294Z,10.20
2019-06-26T09:56:34.418Z,9.20
2019-06-26T09:59:03.339Z,9.63
2019-06-26T10:01:32.307Z,9.65
2019-06-26T10:04:01.233Z,12.28
2019-06-26T10:06:30.197Z,10.32
2019-06-26T10:08:59.228Z,9.93
2019-06-26T10:11:28.050Z,9.55
2019-06-26T10:13:56.845Z,9.40
2019-06-26T10:16:25.812Z,9.05
2019-06-26T10:19:08.997Z,9.25
2019-06-26T10:21:25.392Z,9.40
2019-06-26T10:23:54.323Z,9.60
2019-06-26T10:26:23.362Z,10.68
2019-06-26T10:28:52.535Z,10.55
2019-06-26T10:31:21.552Z,10.78
2019-06-26T10:33:50.602Z,10.03
2019-06-26T10:36:19.726Z,10.25
2019-06-26T10:38:48.874Z,10.13
2019-06-26T10:41:17.799Z,10.08
2019-06-26T10:43:46.635Z,10.68
2019-06-26T10:46:15.541Z,10.80
2019-06-26T10:48:44.573Z,10.25
2019-06-26T10:51:13.440Z,9.35
2019-06-26T10:53:42.591Z,11.95
2019-06-26T10:56:11.676Z,9.73
2019-06-26T10:58:40.570Z,9.73
2019-06-26T11:01:10.018Z,8.90
2019-06-26T11:03:39.129Z,8.73
2019-06-26T11:06:08.045Z,7.80
2019-06-26T11:08:36.901Z,8.68
2019-06-26T11:11:05.822Z,8.20
2019-06-26T11:13:34.782Z,8.83
2019-06-26T11:16:03.723Z,7.83
2019-06-26T11:18:32.689Z,6.97
2019-06-26T11:21:01.633Z,6.90
2019-06-26T11:23:30.569Z,7.40
2019-06-26T11:25:59.425Z,6.85
2019-06-26T11:28:28.360Z,7.00
2019-06-26T11:30:57.289Z,5.78
2019-06-26T11:33:26.192Z,6.00
2019-06-26T11:35:55.046Z,6.28
2019-06-26T11:38:24.066Z,6.62
2019-06-26T11:40:52.987Z,6.40
2019-06-26T11:43:21.886Z,6.20
2019-06-26T11:45:50.691Z,5.90
2019-06-26T11:48:19.642Z,5.37
2019-06-26T11:50:48.437Z,6.20
2019-06-26T11:53:17.373Z,6.67
2019-06-26T11:55:46.623Z,6.12
2019-06-26T11:58:15.531Z,5.97
2019-06-26T12:00:44.546Z,6.97
2019-06-26T12:03:13.583Z,6.83
2019-06-26T12:05:42.444Z,7.45
2019-06-26T12:08:11.503Z,6.78
2019-06-26T12:10:40.537Z,7.72
2019-06-26T12:13:09.448Z,7.65
2019-06-26T12:15:38.674Z,8.15
2019-06-26T12:18:07.573Z,7.87
2019-06-26T12:20:36.394Z,9.53
2019-06-26T12:23:05.338Z,8.08
2019-06-26T12:25:34.277Z,7.80
2019-06-26T12:28:03.178Z,8.38
2019-06-26T12:30:32.214Z,8.80
2019-06-26T12:33:03.444Z,8.55
2019-06-26T12:35:32.075Z,8.85
2019-06-26T12:38:00.998Z,8.40
2019-06-26T12:40:31.471Z,7.62
2019-06-26T12:43:00.587Z,7.17
2019-06-26T12:45:29.563Z,6.80
2019-06-26T12:47:58.521Z,7.20
2019-06-26T12:50:35.577Z,7.30
2019-06-26T12:52:58.140Z,6.55
2019-06-26T12:55:27.137Z,7.40
2019-06-26T12:58:11.874Z,7.95
2019-06-26T13:00:27.557Z,7.35
2019-06-26T13:02:56.557Z,8.85
2019-06-26T13:05:25.637Z,9.25
2019-06-26T13:07:54.424Z,8.80
2019-06-26T13:10:23.854Z,8.45
2019-06-26T13:12:53.107Z,9.10
2019-06-26T13:15:22.191Z,9.78
2019-06-26T13:17:51.245Z,9.18
2019-06-26T13:20:20.329Z,9.45
2019-06-26T13:22:49.324Z,9.33
2019-06-26T13:25:18.298Z,9.23
2019-06-26T13:27:47.241Z,10.18
2019-06-26T13:30:19.948Z,8.45
2019-06-26T13:32:48.783Z,7.92
2019-06-26T13:35:17.836Z,8.25
2019-06-26T13:37:46.758Z,8.65
2019-06-26T13:40:16.437Z,10.03
2019-06-26T13:42:45.329Z,9.18
2019-06-26T13:45:14.476Z,10.00
2019-06-26T13:47:43.496Z,9.90
2019-06-26T13:50:12.928Z,9.43
2019-06-26T13:52:41.884Z,10.45
2019-06-26T13:55:10.921Z,9.70
2019-06-26T13:57:39.878Z,8.73
2019-06-26T14:00:09.412Z,9.65
2019-06-26T14:02:38.362Z,10.05
2019-06-26T14:05:07.399Z,9.90
2019-06-26T14:07:36.380Z,10.30
2019-06-26T14:10:06.495Z,10.85
2019-06-26T14:12:35.435Z,11.57
2019-06-26T14:15:04.690Z,12.23
2019-06-26T14:17:33.576Z,12.55
2019-06-26T14:20:02.476Z,11.75
2019-06-26T14:22:31.369Z,11.40
2019-06-26T14:25:00.873Z,13.25
2019-06-26T14:27:30.100Z,13.70
2019-06-26T14:29:59.174Z,13.20
2019-06-26T14:32:28.047Z,13.00
2019-06-26T14:34:57.078Z,12.88
2019-06-26T14:37:26.111Z,14.13
2019-06-26T14:39:55.181Z,13.75
2019-06-26T14:42:24.208Z,14.20
2019-06-26T14:44:53.129Z,13.05
2019-06-26T14:47:22.440Z,13.03
2019-06-26T14:49:51.279Z,12.55
2019-06-26T14:52:20.113Z,12.50
2019-06-26T14:54:49.261Z,12.47
2019-06-26T14:57:18.650Z,14.47
2019-06-26T14:59:47.878Z,14.50
2019-06-26T15:02:16.924Z,12.00
2019-06-26T15:04:46.249Z,11.33
2019-06-26T15:07:15.441Z,10.45
2019-06-26T15:09:44.470Z,10.80
2019-06-26T15:12:13.423Z,12.10
2019-06-26T15:14:42.262Z,10.93
2019-06-26T15:17:11.100Z,11.40
2019-06-26T15:19:40.036Z,10.43
2019-06-26T15:22:09.065Z,10.25
2019-06-26T15:24:38.442Z,9.13
2019-06-26T15:27:07.660Z,8.60
2019-06-26T15:29:36.614Z,8.05
2019-06-26T15:32:05.518Z,8.83
2019-06-26T15:34:34.601Z,8.55
2019-06-26T15:37:03.596Z,8.58
2019-06-26T15:39:32.580Z,7.80
2019-06-26T15:42:02.007Z,7.85
2019-06-26T15:44:30.909Z,7.17
2019-06-26T15:47:00.982Z,8.10
2019-06-26T15:49:34.807Z,7.30
2019-06-26T15:52:14.423Z,7.60
2019-06-26T15:54:34.254Z,7.15
2019-06-26T15:57:03.209Z,7.58
2019-06-26T15:59:32.151Z,7.60
2019-06-26T16:02:01.519Z,7.30
2019-06-26T16:04:30.452Z,7.72
2019-06-26T16:06:59.431Z,8.38
2019-06-26T16:09:28.429Z,8.43
2019-06-26T16:11:58.973Z,7.70
2019-06-26T16:14:27.888Z,7.37
2019-06-26T16:16:59.368Z,7.90
2019-06-26T16:19:28.473Z,8.10
2019-06-26T16:21:57.393Z,8.80
2019-06-26T16:24:29.915Z,9.15
2019-06-26T16:26:57.518Z,9.08
2019-06-26T16:29:26.752Z,8.65
2019-06-26T16:31:55.980Z,8.35
2019-06-26T16:34:24.980Z,9.15
2019-06-26T16:36:54.075Z,9.63
2019-06-26T16:39:23.779Z,9.85
2019-06-26T16:41:52.893Z,10.30
2019-06-26T16:44:22.134Z,10.13
2019-06-26T16:46:51.086Z,9.88
2019-06-26T16:49:20.395Z,10.40
2019-06-26T16:51:49.255Z,9.78
2019-06-26T16:54:18.189Z,10.45
2019-06-26T16:56:47.155Z,9.80
2019-06-26T16:59:16.098Z,9.65
2019-06-26T17:01:44.956Z,10.03
2019-06-26T17:04:13.894Z,10.32
2019-06-26T17:06:42.690Z,10.30
2019-06-26T17:09:11.605Z,9.35
2019-06-26T17:11:40.513Z,9.10
2019-06-26T17:14:09.420Z,9.40
2019-06-26T17:16:38.345Z,8.05
2019-06-26T17:19:07.373Z,7.80
2019-06-26T17:21:36.467Z,7.42
2019-06-26T17:24:05.641Z,7.25
2019-06-26T17:26:35.050Z,7.55
2019-06-26T17:29:04.206Z,7.42
2019-06-26T17:31:33.205Z,7.65
2019-06-26T17:34:02.292Z,7.72
2019-06-26T17:36:31.692Z,7.50
2019-06-26T17:39:00.656Z,6.92
2019-06-26T17:41:29.553Z,7.80
2019-06-26T17:43:58.442Z,7.85
2019-06-26T17:46:27.413Z,8.73
2019-06-26T17:48:56.542Z,9.40
2019-06-26T17:51:25.770Z,9.98
2019-06-26T17:53:54.772Z,9.93
2019-06-26T17:56:24.090Z,10.20
2019-06-26T17:58:53.058Z,11.05
2019-06-26T18:01:21.914Z,11.08
2019-06-26T18:03:51.421Z,11.28
2019-06-26T18:06:20.524Z,12.58
2019-06-26T18:08:49.562Z,12.93
2019-06-26T18:11:18.635Z,12.60
2019-06-26T18:13:47.526Z,13.05
2019-06-26T18:16:16.468Z,12.78
2019-06-26T18:18:45.493Z,12.78
2019-06-26T18:21:14.438Z,12.28
2019-06-26T18:23:43.713Z,12.03
2019-06-26T18:26:13.988Z,12.45
2019-06-26T18:28:43.391Z,12.65
2019-06-26T18:31:12.301Z,12.35
2019-06-26T18:33:44.173Z,11.55
2019-06-26T18:36:11.705Z,13.03
2019-06-26T18:38:40.709Z,10.10
2019-06-26T18:41:09.771Z,10.75
2019-06-26T18:43:38.733Z,9.93
2019-06-26T18:46:07.608Z,10.40
2019-06-26T18:48:36.685Z,9.78
2019-06-26T18:51:05.535Z,8.90
2019-06-26T18:53:36.013Z,8.45
2019-06-26T18:56:05.407Z,9.38
2019-06-26T18:58:35.048Z,8.60
2019-06-26T19:01:03.950Z,8.48
2019-06-26T19:03:32.891Z,9.13
2019-06-26T19:06:02.091Z,9.00
2019-06-26T19:08:31.476Z,8.63
2019-06-26T19:11:00.669Z,8.45
2019-06-26T19:13:29.623Z,8.65
2019-06-26T19:15:58.510Z,8.78
2019-06-26T19:18:27.370Z,7.97
2019-06-26T19:20:56.453Z,8.38
2019-06-26T19:23:25.318Z,8.08
2019-06-26T19:25:54.510Z,7.90
2019-06-26T19:28:23.449Z,8.90
2019-06-26T19:30:52.292Z,8.88
2019-06-26T19:33:21.158Z,8.95
2019-06-26T19:35:50.073Z,9.70
2019-06-26T19:38:19.083Z,8.43
2019-06-26T19:40:48.108Z,9.25
2019-06-26T19:43:17.064Z,9.95
2019-06-26T19:45:46.019Z,8.53
2019-06-26T19:48:15.010Z,8.75
2019-06-26T19:50:44.002Z,8.80
2019-06-26T19:53:13.322Z,10.20
2019-06-26T19:55:42.170Z,9.55
2019-06-26T19:58:11.453Z,9.80
2019-06-26T20:00:40.729Z,9.68
2019-06-26T20:03:09.798Z,10.03
2019-06-26T20:05:38.728Z,9.83
2019-06-26T20:08:07.743Z,9.93
2019-06-26T20:10:36.607Z,10.05
2019-06-26T20:13:05.529Z,11.15
2019-06-26T20:15:34.464Z,9.55
2019-06-26T20:18:04.395Z,9.80
2019-06-26T20:20:33.618Z,9.33
2019-06-26T20:23:02.666Z,9.03
2019-06-26T20:25:31.577Z,9.50
2019-06-26T20:28:00.585Z,8.05
2019-06-26T20:30:33.873Z,8.55
2019-06-26T20:33:02.814Z,7.80
2019-06-26T20:35:31.990Z,7.97
2019-06-26T20:38:01.064Z,7.60
2019-06-26T20:40:30.232Z,7.95
2019-06-26T20:42:59.490Z,7.95
2019-06-26T20:45:28.397Z,7.42
2019-06-26T20:47:57.348Z,8.13
2019-06-26T20:50:26.170Z,7.28
2019-06-26T20:52:55.087Z,8.13
2019-06-26T20:55:24.188Z,7.47
2019-06-26T20:57:53.070Z,7.95
2019-06-26T21:00:22.682Z,7.87
2019-06-26T21:02:54.097Z,6.72
2019-06-26T21:05:22.441Z,6.53
2019-06-26T21:07:51.478Z,6.90
2019-06-26T21:10:20.555Z,6.55
2019-06-26T21:12:49.512Z,6.35
2019-06-26T21:15:18.551Z,7.80
2019-06-26T21:17:47.543Z,7.22
2019-06-26T21:20:16.630Z,7.28
2019-06-26T21:22:45.510Z,6.05
2019-06-26T21:25:19.097Z,6.25
2019-06-26T21:27:46.296Z,6.55
2019-06-26T21:30:15.571Z,6.65
2019-06-26T21:32:44.552Z,6.20
2019-06-26T21:35:13.635Z,7.12
2019-06-26T21:37:42.545Z,6.60
2019-06-26T21:40:12.039Z,6.97
2019-06-26T21:42:40.978Z,6.37
2019-06-26T21:45:10.431Z,6.58
2019-06-26T21:47:39.330Z,6.15
2019-06-26T21:50:08.208Z,6.30
2019-06-26T21:52:37.226Z,6.25
2019-06-26T21:55:06.212Z,6.50
2019-06-26T21:57:35.541Z,6.12
2019-06-26T22:00:05.463Z,6.45
2019-06-26T22:02:34.735Z,5.60
2019-06-26T22:05:04.678Z,5.45
2019-06-26T22:07:33.601Z,6.30
2019-06-26T22:10:02.635Z,6.08
2019-06-26T22:12:31.742Z,5.90
2019-06-26T22:15:00.720Z,5.25
2019-06-26T22:17:29.646Z,6.08
2019-06-26T22:19:58.510Z,6.22
2019-06-26T22:22:27.542Z,5.92
2019-06-26T22:24:56.629Z,6.25
2019-06-26T22:27:25.589Z,6.05
2019-06-26T22:29:54.869Z,5.92
2019-06-26T22:32:23.846Z,6.08
2019-06-26T22:34:52.755Z,5.45
2019-06-26T22:37:21.547Z,5.20
2019-06-26T22:39:50.491Z,4.95
2019-06-26T22:42:19.433Z,5.35
2019-06-26T22:44:48.374Z,5.58
2019-06-26T22:47:17.163Z,5.20
2019-06-26T22:49:46.045Z,5.47
2019-06-26T22:52:14.954Z,6.45
2019-06-26T22:54:44.027Z,5.47
2019-06-26T22:57:13.018Z,5.83
2019-06-26T22:59:41.951Z,5.55
2019-06-26T23:02:10.945Z,5.45
2019-06-26T23:04:39.846Z,5.55
2019-06-26T23:07:08.796Z,4.95
2019-06-26T23:09:37.772Z,5.80
2019-06-26T23:12:06.702Z,5.47
2019-06-26T23:14:35.761Z,5.55
2019-06-26T23:17:04.784Z,4.83
2019-06-26T23:19:33.816Z,4.97
2019-06-26T23:22:02.762Z,4.60
2019-06-26T23:24:31.754Z,4.80
2019-06-26T23:27:00.719Z,4.50
2019-06-26T23:29:29.738Z,4.67
2019-06-26T23:31:58.802Z,4.87
2019-06-26T23:34:27.719Z,4.85
2019-06-26T23:36:56.737Z,5.08
2019-06-26T23:39:25.560Z,4.58
2019-06-26T23:41:54.520Z,4.60
2019-06-26T23:44:24.371Z,4.78
2019-06-26T23:46:53.433Z,5.00
2019-06-26T23:49:22.365Z,5.00
2019-06-26T23:51:51.374Z,4.28
2019-06-26T23:54:20.381Z,4.80
2019-06-26T23:56:49.309Z,5.00
2019-06-26T23:59:18.367Z,4.85
